Latest Weather Observations for Canberra

IDN60901

Issued at 8:45 pm EDT Wednesday 22 October 2014 (issued every 10 minutes, with the page automatically refreshed every 10 minutes)

About weather observations | Map of Canberra area stations | Latest observations for Canberra area | Other Formats
Station Details ID: 070351 Name: CANBERRA AIRPORT Lat: -35.31 Lon: 149.20 Height: 577.05 m
Data from the previous 72 hours. | See also: Recent months at Canberra
Date/Time
EDT
Tmp

°C
App
Tmp
°C
Dew
Point
°C
Rel
Hum
%
Delta-T

°C
Wind Press
QNH
hPa
Press
MSL
hPa
Rain
since
9 am
mm
Dir
 
Spd
km/h
Gust
km/h
Spd
kts
Gust
kts
22/08:30pm 18.7 16.5 10.8 60 4.4 N 13 17 7 9 1019.6 - 0.0
22/08:00pm 19.4 17.3 11.2 59 4.6 N 13 15 7 8 1019.4 - 0.0
22/07:30pm 20.1 18.0 11.1 56 5.1 N 13 19 7 10 1019.4 - 0.0
22/07:00pm 21.9 19.2 11.6 52 5.9 N 17 26 9 14 1019.3 - 0.0
22/06:30pm 22.7 19.7 12.6 53 5.9 NNW 20 30 11 16 1019.1 - 0.0
22/06:00pm 23.4 20.1 12.7 51 6.3 NNW 22 30 12 16 1019.3 1018.8 0.0
22/05:30pm 24.2 21.2 13.7 52 6.3 N 22 32 12 17 1019.3 - 0.0
22/05:00pm 24.0 20.7 12.9 50 6.6 NNW 22 32 12 17 1019.4 - 0.0
22/04:30pm 24.3 20.9 13.8 52 6.3 NNW 24 30 13 16 1019.4 - 0.0
22/04:00pm 23.9 21.0 12.8 49 6.6 N 20 28 11 15 1019.7 - 0.0
22/03:30pm 23.7 20.5 13.0 51 6.3 NNW 22 28 12 15 1020.0 - 0.0
22/03:00pm 24.1 21.4 13.6 52 6.3 NW 20 30 11 16 1020.3 1019.8 0.0
22/02:30pm 23.5 20.2 13.9 55 5.8 NNW 24 28 13 15 1020.8 - 0.0
22/02:00pm 23.1 19.5 13.0 53 6.0 NNW 24 32 13 17 1021.5 - 0.0
22/01:30pm 22.4 19.7 13.5 57 5.3 N 20 30 11 16 1021.9 - 0.0
22/01:00pm 21.2 19.5 12.6 58 5.0 NW 13 17 7 9 1022.5 - 0.0
22/12:30pm 19.7 18.5 12.9 65 3.9 WNW 11 17 6 9 1023.3 - 0.0
22/12:00pm 18.0 16.1 10.4 61 4.2 NW 11 15 6 8 1024.0 1023.6 0.0
22/11:30am 16.4 15.2 10.3 67 3.3 NW 7 13 4 7 1024.6 - 0.0
22/11:00am 14.8 13.0 9.4 70 2.9 NNW 9 13 5 7 1025.4 - 0.0
22/10:30am 13.0 11.3 8.3 73 2.4 NNW 7 11 4 6 1026.0 - 0.0
22/10:29am 13.0 11.3 8.3 73 2.4 NNW 7 11 4 6 1026.0 - 0.0
22/10:00am 12.8 11.3 8.3 74 2.3 N 6 11 3 6 1026.2 - 0.0
22/09:30am 12.1 11.0 8.4 78 1.9 NE 4 9 2 5 1026.3 - 0.0
22/09:00am 11.2 9.5 7.7 79 1.7 SW 6 9 3 5 1026.4 1026.1 0.0
22/08:30am 10.9 9.6 7.6 80 1.6 SSE 4 9 2 5 1026.3 - 0.0
22/08:00am 10.8 8.9 7.7 81 1.5 SW 7 11 4 6 1026.4 - 0.0
22/07:30am 10.4 8.1 7.3 81 1.5 S 9 13 5 7 1026.2 - 0.0
22/07:00am 10.1 7.0 7.3 83 1.4 S 13 13 7 7 1026.2 - 0.0
22/06:30am 10.0 8.0 7.3 83 1.3 S 7 9 4 5 1026.3 - 0.0
22/06:00am 9.8 7.8 7.1 83 1.3 SSW 7 9 4 5 1026.3 1025.9 0.0
22/05:30am 9.8 9.1 7.1 83 1.3 CALM 0 0 0 0 1026.4 - 0.0
22/05:00am 9.7 6.9 7.0 83 1.3 E 11 15 6 8 1026.3 - 0.0
22/04:30am 10.1 7.7 7.0 81 1.5 ENE 9 15 5 8 1026.5 - 0.0
22/04:00am 10.2 7.8 7.1 81 1.5 ENE 9 13 5 7 1026.8 - 0.0
22/03:30am 10.2 7.8 6.9 80 1.6 E 9 13 5 7 1027.2 - 0.0
22/03:00am 10.3 7.9 6.8 79 1.7 ENE 9 11 5 6 1027.5 1027.1 0.0
22/02:30am 10.3 7.1 7.0 80 1.6 E 13 15 7 8 1028.0 - 0.0
22/02:00am 10.2 8.2 7.3 82 1.4 ESE 7 7 4 4 1028.6 - 0.0
22/01:30am 10.2 8.4 7.3 82 1.4 ENE 6 7 3 4 1029.1 - 0.0
22/01:03am 9.9 7.5 7.0 82 1.4 ENE 9 13 5 7 1029.5 - 0.0
22/01:00am 10.0 7.6 7.1 82 1.4 ENE 9 13 5 7 1029.5 - 0.0
22/12:30am 10.6 7.9 7.3 80 1.6 E 11 15 6 8 1029.8 - 0.0
22/12:00am 11.0 7.2 7.5 79 1.7 E 17 19 9 10 1030.0 1029.7 0.0
 
Date/Time
EDT
Tmp

°C
App
Tmp
°C
Dew
Point
°C
Rel
Hum
%
Delta-T

°C
Wind Press
QNH
hPa
Press
MSL
hPa
Rain
since
9 am
mm
Dir
 
Spd
km/h
Gust
km/h
Spd
kts
Gust
kts
21/11:30pm 11.2 7.0 7.5 78 1.8 E 19 26 10 14 1030.1 - 0.0
21/11:00pm 11.3 6.6 7.6 78 1.8 E 22 32 12 17 1030.3 - 0.0
21/10:30pm 11.5 7.1 7.6 77 1.9 ENE 20 28 11 15 1030.4 - 0.0
21/10:00pm 11.8 7.1 7.7 76 2.1 ENE 22 28 12 15 1030.4 - 0.0
21/09:30pm 12.0 7.0 7.9 76 2.1 ENE 24 32 13 17 1030.3 - 0.0
21/09:00pm 12.1 7.0 7.8 75 2.2 ENE 24 32 13 17 1029.9 1029.6 0.0
21/08:30pm 12.4 8.3 7.9 74 2.3 ENE 19 26 10 14 1029.7 - 0.0
21/08:00pm 12.8 10.2 7.9 72 2.5 NE 11 15 6 8 1029.5 - 0.0
21/07:30pm 13.1 9.4 8.0 71 2.6 NE 17 28 9 15 1029.2 - 0.0
21/07:00pm 13.8 9.6 7.6 66 3.1 ENE 19 28 10 15 1028.6 - 0.0
21/06:30pm 14.3 10.1 7.6 64 3.4 ENE 19 24 10 13 1028.5 - 0.0
21/06:00pm 15.5 11.1 7.5 59 4.1 ENE 20 30 11 16 1028.3 1028.0 0.0
21/05:30pm 16.5 13.2 8.2 58 4.3 ENE 15 22 8 12 1028.2 - 0.0
21/05:00pm 16.3 12.6 8.0 58 4.3 NE 17 24 9 13 1028.5 - 0.0
21/04:30pm 17.0 13.8 8.4 57 4.5 NE 15 20 8 11 1028.5 - 0.0
21/04:00pm 17.3 14.2 8.7 57 4.6 NE 15 22 8 12 1028.7 - 0.0
21/03:30pm 16.4 13.1 8.1 58 4.3 ENE 15 22 8 12 1029.1 - 0.0
21/03:00pm 16.0 12.7 8.0 59 4.1 NNE 15 22 8 12 1029.5 1029.2 0.0
21/02:30pm 15.3 11.3 8.1 62 3.7 NE 19 26 10 14 1030.0 - 0.0
21/02:00pm 15.1 11.6 7.4 60 3.9 ENE 15 19 8 10 1030.6 - 0.0
21/01:30pm 14.9 11.1 7.5 61 3.8 E 17 26 9 14 1030.9 - 0.0
21/01:00pm 14.5 10.2 7.1 61 3.7 ENE 19 26 10 14 1031.3 - 0.0
21/12:30pm 15.1 10.8 7.9 62 3.7 ENE 20 26 11 14 1031.5 - 0.0
21/12:00pm 14.6 10.2 7.4 62 3.6 E 20 26 11 14 1031.8 1031.5 0.0
21/11:30am 14.4 10.1 7.7 64 3.4 E 20 28 11 15 1032.2 - 0.0
21/11:00am 13.9 9.7 7.4 65 3.3 E 19 26 10 14 1032.5 - 0.0
21/10:30am 13.2 9.3 7.2 67 3.0 ENE 17 26 9 14 1032.6 - 0.0
21/10:00am 12.3 8.0 6.8 69 2.7 E 19 26 10 14 1032.7 - 0.0
21/09:30am 11.8 7.9 6.9 72 2.4 E 17 26 9 14 1032.6 - 0.0
21/09:00am 11.1 7.4 6.5 73 2.2 E 15 20 8 11 1032.4 1032.0 0.0
21/08:30am 10.7 7.4 6.3 74 2.1 ESE 13 17 7 9 1032.2 - 0.0
21/08:00am 10.3 7.3 6.1 75 2.0 ESE 11 19 6 10 1031.9 - 0.0
21/07:30am 10.1 7.2 6.4 78 1.8 ESE 11 17 6 9 1031.6 - 0.0
21/07:00am 9.8 5.7 6.2 78 1.7 ESE 17 26 9 14 1031.4 - 0.0
21/06:30am 9.7 6.7 6.2 79 1.7 E 11 17 6 9 1031.1 - 0.0
21/06:00am 9.7 6.4 6.6 81 1.5 E 13 17 7 9 1031.0 1030.7 0.0
21/05:30am 9.7 6.4 6.6 81 1.5 ESE 13 17 7 9 1030.8 - 0.0
21/05:00am 9.6 6.0 6.7 82 1.4 ESE 15 20 8 11 1030.7 - 0.0
21/04:30am 9.6 5.9 6.5 81 1.5 SE 15 20 8 11 1030.8 - 0.0
21/04:00am 9.7 6.0 6.4 80 1.6 ESE 15 19 8 10 1031.0 - 0.0
21/03:30am 9.8 5.7 6.3 79 1.7 ESE 17 20 9 11 1031.0 - 0.0
21/03:00am 9.9 6.7 6.8 81 1.5 ESE 13 17 7 9 1031.3 1031.0 0.0
21/02:30am 9.9 7.1 6.8 81 1.5 SE 11 15 6 8 1031.4 - 0.0
21/02:00am 9.8 6.2 6.9 82 1.4 ESE 15 19 8 10 1031.5 - 0.0
21/01:30am 9.8 6.6 6.7 81 1.5 ESE 13 15 7 8 1031.7 - 0.0
21/01:00am 9.9 6.7 6.8 81 1.5 SE 13 17 7 9 1031.7 - 0.0
21/12:30am 10.0 6.8 6.9 81 1.5 SE 13 19 7 10 1032.0 - 0.0
21/12:00am 10.0 6.8 6.7 80 1.6 SE 13 19 7 10 1032.0 1031.7 0.0
 
Date/Time
EDT
Tmp

°C
App
Tmp
°C
Dew
Point
°C
Rel
Hum
%
Delta-T

°C
Wind Press
QNH
hPa
Press
MSL
hPa
Rain
since
9 am
mm
Dir
 
Spd
km/h
Gust
km/h
Spd
kts
Gust
kts
20/11:30pm 10.1 6.5 6.8 80 1.6 SE 15 20 8 11 1032.0 - 0.0
20/11:00pm 10.2 6.2 6.7 79 1.7 SE 17 24 9 13 1032.0 - 0.0
20/10:30pm 10.4 6.0 6.7 78 1.8 ESE 19 28 10 15 1031.9 - 0.0
20/10:00pm 10.6 6.6 6.7 77 1.9 ESE 17 22 9 12 1031.9 - 0.0
20/09:30pm 10.9 6.6 6.8 76 2.0 ESE 19 28 10 15 1031.7 - 0.0
20/09:00pm 11.0 7.1 7.1 77 1.9 ESE 17 22 9 12 1031.5 1031.2 0.0
20/08:30pm 11.0 7.9 7.1 77 1.9 ESE 13 22 7 12 1031.1 - 0.0
20/08:00pm 11.1 7.2 7.2 77 1.9 E 17 26 9 14 1030.7 - 0.0
20/07:30pm 11.4 7.8 6.9 74 2.2 E 15 20 8 11 1030.6 - 0.0
20/07:00pm 11.6 8.1 7.3 75 2.1 E 15 20 8 11 1030.3 - 0.0
20/06:30pm 11.8 7.4 7.5 75 2.1 E 20 28 11 15 1030.0 - 0.0
20/06:00pm 12.4 8.1 7.7 73 2.4 E 20 30 11 16 1029.9 1029.6 0.0
20/05:30pm 12.8 8.5 7.9 72 2.5 E 20 28 11 15 1029.8 - 0.0
20/05:00pm 13.3 9.1 8.2 71 2.6 E 20 26 11 14 1029.6 - 0.0
20/04:30pm 13.4 8.3 7.6 68 2.9 E 24 33 13 18 1029.3 - 0.0
20/04:00pm 14.4 9.5 8.6 68 3.0 ENE 24 32 13 17 1029.2 - 0.0
20/03:30pm 15.0 10.9 8.5 65 3.4 ENE 20 28 11 15 1029.2 - 0.0
20/03:00pm 15.3 10.8 8.5 64 3.5 E 22 30 12 16 1029.3 1028.9 0.0
20/02:30pm 15.9 11.6 9.3 65 3.5 ENE 22 30 12 16 1029.4 - 0.0
20/02:00pm 15.4 10.7 9.3 67 3.2 E 24 32 13 17 1029.6 - 0.0
20/01:30pm 15.6 10.9 9.1 65 3.4 E 24 33 13 18 1029.5 - 0.0
20/01:00pm 15.8 11.2 9.5 66 3.4 E 24 33 13 18 1029.5 - 0.0
20/12:30pm 15.6 10.9 9.1 65 3.4 ENE 24 33 13 18 1029.5 - 0.0
20/12:00pm 15.3 10.6 10.5 73 2.6 E 26 30 14 16 1029.7 1029.4 0.0
20/11:30am 16.6 13.2 10.5 67 3.3 E 19 28 10 15 1029.6 - 0.0
20/11:00am 16.4 13.1 10.9 70 3.0 ENE 19 28 10 15 1029.7 - 0.0
20/10:30am 16.0 13.0 10.7 71 2.9 ENE 17 24 9 13 1029.6 - 0.0
20/10:00am 15.9 13.0 10.9 72 2.7 ENE 17 26 9 14 1029.6 - 0.0
20/09:30am 15.5 12.5 10.5 72 2.7 E 17 24 9 13 1029.2 - 0.0
20/09:00am 16.1 13.0 10.4 69 3.1 E 17 22 9 12 1028.8 1028.4 0.0
20/08:30am 15.5 13.1 8.7 64 3.6 E 11 17 6 9 1028.3 - 0.0
20/08:00am 14.9 12.3 9.3 69 3.0 SE 13 17 7 9 1027.9 - 0.0
20/07:30am 13.7 10.3 9.2 74 2.4 SSE 17 26 9 14 1027.2 - 0.0
20/07:00am 12.2 10.0 9.2 82 1.6 SE 11 15 6 8 1026.8 - 0.0
20/06:30am 11.3 8.5 8.5 83 1.4 SE 13 17 7 9 1025.9 - 0.0
20/06:00am 8.7 6.4 7.5 92 0.6 SE 9 15 5 8 1025.4 1025.0 0.0
20/05:30am 8.5 7.5 5.8 83 1.3 CALM 0 0 0 0 1024.3 - 0.0
20/05:00am 9.4 7.0 6.8 84 1.3 SE 9 11 5 6 1024.0 - 0.0
20/04:30am 9.7 9.0 6.8 82 1.4 CALM 0 0 0 0 1023.6 - 0.0
20/04:00am 9.9 9.2 6.8 81 1.5 CALM 0 0 0 0 1023.6 - 0.0
20/03:30am 10.2 9.3 7.8 85 1.2 ENE 2 7 1 4 1023.6 - 0.0
20/03:00am 10.2 9.1 6.9 80 1.6 NNW 2 6 1 3 1023.9 1023.5 0.0
20/02:30am 10.2 9.1 6.7 79 1.7 SE 2 7 1 4 1024.0 - 0.0
20/02:00am 10.0 7.8 6.2 77 1.8 ESE 7 9 4 5 1024.3 - 0.0
20/01:30am 10.2 9.4 6.7 79 1.7 CALM 0 0 0 0 1024.5 - 0.0
20/01:00am 11.8 10.7 7.1 73 2.3 N 2 6 1 3 1024.6 - 0.0
20/12:30am 12.1 11.5 7.2 72 2.4 CALM 0 0 0 0 1024.9 - 0.0
20/12:00am 11.1 9.8 6.0 71 2.4 E 2 6 1 3 1025.1 1024.7 0.0
 
Date/Time
EDT
Tmp

°C
App
Tmp
°C
Dew
Point
°C
Rel
Hum
%
Delta-T

°C
Wind Press
QNH
hPa
Press
MSL
hPa
Rain
since
9 am
mm
Dir
 
Spd
km/h
Gust
km/h
Spd
kts
Gust
kts
19/11:30pm 12.7 10.8 6.5 66 3.1 S 6 7 3 4 1025.2 - 0.0
19/11:00pm 13.4 12.4 7.2 66 3.1 NE 2 7 1 4 1025.0 - 0.0
19/10:30pm 13.8 11.9 6.9 63 3.5 ENE 6 7 3 4 1025.0 - 0.0
19/10:00pm 14.1 12.5 6.5 60 3.8 ENE 4 6 2 3 1025.3 - 0.0
19/09:30pm 16.5 13.9 6.3 51 5.1 N 9 11 5 6 1024.8 - 0.0
19/09:00pm 17.2 14.0 6.7 50 5.3 NE 13 17 7 9 1024.6 1024.2 0.0

Latest Capital City Observations: Canberra | Sydney | Melbourne | Brisbane | Adelaide | Perth | Hobart | Darwin

Other Formats:

Comma delimited format used in spreadsheet applications
http://www.bom.gov.au/fwo/IDN60903/IDN60903.94926.axf

JavaScript Object Notation format (JSON) in row-major order
http://www.bom.gov.au/fwo/IDN60903/IDN60903.94926.json